createdAt,value
2018-04-30T00:00:53.182Z,96209.37
2018-04-30T00:03:21.451Z,96212.94
2018-04-30T00:05:50.451Z,96225.58
2018-04-30T00:08:18.700Z,96227.02
2018-04-30T00:10:46.935Z,96220.13
2018-04-30T00:13:15.961Z,96224.38
2018-04-30T00:15:44.191Z,96232.28
2018-04-30T00:18:12.523Z,96237.38
2018-04-30T00:20:40.691Z,96230.53
2018-04-30T00:23:08.945Z,96235.40
2018-04-30T00:25:37.183Z,96238.72
2018-04-30T00:28:06.203Z,96246.84
2018-04-30T00:30:36.020Z,96260.05
2018-04-30T00:33:04.302Z,96267.48
2018-04-30T00:35:33.326Z,96270.16
2018-04-30T00:38:02.423Z,96284.62
2018-04-30T00:40:32.172Z,96284.92
2018-04-30T00:43:00.414Z,96280.50
2018-04-30T00:45:28.727Z,96289.03
2018-04-30T00:47:57.819Z,96293.84
2018-04-30T00:50:26.825Z,96290.53
2018-04-30T00:52:56.675Z,96293.91
2018-04-30T00:55:25.666Z,96303.46
2018-04-30T00:57:54.670Z,96310.16
2018-04-30T01:00:24.303Z,96315.47
2018-04-30T01:02:53.319Z,96318.80
2018-04-30T01:05:21.566Z,96321.63
2018-04-30T01:07:49.822Z,96317.75
2018-04-30T01:10:18.059Z,96311.35
2018-04-30T01:12:46.311Z,96300.95
2018-04-30T01:15:14.556Z,96299.66
2018-04-30T01:17:43.587Z,96313.95
2018-04-30T01:20:11.835Z,96322.31
2018-04-30T01:22:40.960Z,96325.88
2018-04-30T01:25:09.960Z,96332.48
2018-04-30T01:27:38.982Z,96343.30
2018-04-30T01:30:08.571Z,96347.33
2018-04-30T01:32:36.827Z,96357.02
2018-04-30T01:35:05.059Z,96358.90
2018-04-30T01:37:34.072Z,96362.05
2018-04-30T01:40:03.436Z,96364.98
2018-04-30T01:42:33.082Z,96374.17
2018-04-30T01:45:01.315Z,96381.51
2018-04-30T01:47:29.570Z,96398.44
2018-04-30T01:49:58.580Z,96398.48
2018-04-30T01:52:27.579Z,96395.75
2018-04-30T01:54:55.845Z,96402.63
2018-04-30T01:57:24.074Z,96404.02
2018-04-30T01:59:53.092Z,96417.15
2018-04-30T02:02:21.340Z,96420.47
2018-04-30T02:04:49.603Z,96426.04
2018-04-30T02:07:17.847Z,96437.52
2018-04-30T02:09:46.103Z,96460.75
2018-04-30T02:12:14.336Z,96459.23
2018-04-30T02:14:42.602Z,96437.12
2018-04-30T02:17:11.599Z,96435.28
2018-04-30T02:19:39.856Z,96434.09
2018-04-30T02:22:08.123Z,96440.39
2018-04-30T02:24:36.407Z,96456.02
2018-04-30T02:27:04.647Z,96483.22
2018-04-30T02:29:32.906Z,96466.48
2018-04-30T02:32:01.896Z,96462.91
2018-04-30T02:34:30.182Z,96471.19
2018-04-30T02:36:58.432Z,96479.20
2018-04-30T02:39:27.542Z,96484.19
2018-04-30T02:41:56.551Z,96486.36
2018-04-30T02:44:25.563Z,96492.88
2018-04-30T02:46:54.567Z,96494.92
2018-04-30T02:49:23.587Z,96488.84
2018-04-30T02:51:52.583Z,96497.61
2018-04-30T02:54:21.596Z,96501.53
2018-04-30T02:56:50.601Z,96504.77
2018-04-30T02:59:19.615Z,96517.17
2018-04-30T03:01:47.855Z,96531.06
2018-04-30T03:04:16.108Z,96537.08
2018-04-30T03:06:44.352Z,96544.30
2018-04-30T03:09:12.610Z,96544.69
2018-04-30T03:11:40.857Z,96554.17
2018-04-30T03:14:09.109Z,96550.16
2018-04-30T03:16:37.339Z,96560.71
2018-04-30T03:19:05.594Z,96557.84
2018-04-30T03:21:33.817Z,96578.16
2018-04-30T03:24:02.059Z,96599.98
2018-04-30T03:26:30.299Z,96592.28
2018-04-30T03:28:58.559Z,96611.14
2018-04-30T03:31:27.558Z,96611.94
2018-04-30T03:33:55.816Z,96629.10
2018-04-30T03:36:24.047Z,96632.50
2018-04-30T03:38:53.067Z,96626.23
2018-04-30T03:41:21.348Z,96618.67
2018-04-30T03:43:50.406Z,96633.09
2018-04-30T03:46:18.665Z,96628.95
2018-04-30T03:48:46.912Z,96635.89
2018-04-30T03:51:15.195Z,96626.98
2018-04-30T03:53:43.423Z,96633.39
2018-04-30T03:56:11.675Z,96630.82
2018-04-30T03:58:40.682Z,96624.14
2018-04-30T04:01:26.759Z,96626.30
2018-04-30T04:04:13.006Z,96622.69
2018-04-30T04:06:53.105Z,96622.42
2018-04-30T04:09:22.156Z,96622.05
2018-04-30T04:11:50.391Z,96629.38
2018-04-30T04:14:19.403Z,96655.84
2018-04-30T04:16:47.677Z,96646.23
2018-04-30T04:19:16.687Z,96641.55
2018-04-30T04:21:45.690Z,96637.53
2018-04-30T04:24:14.688Z,96642.72
2018-04-30T04:26:43.712Z,96651.28
2018-04-30T04:29:13.102Z,96654.59
2018-04-30T04:31:41.355Z,96649.69
2018-04-30T04:34:09.597Z,96659.12
2018-04-30T04:36:39.472Z,96637.58
2018-04-30T04:39:07.824Z,96643.57
2018-04-30T04:41:36.113Z,96644.27
2018-04-30T04:44:04.387Z,96638.70
2018-04-30T04:46:34.251Z,96636.65
2018-04-30T04:49:02.499Z,96627.83
2018-04-30T04:51:31.508Z,96635.93
2018-04-30T04:54:00.515Z,96638.03
2018-04-30T04:56:31.255Z,96634.25
2018-04-30T04:59:00.272Z,96639.17
2018-04-30T05:01:29.301Z,96636.55
2018-04-30T05:03:58.306Z,96655.31
2018-04-30T05:06:26.572Z,96676.75
2018-04-30T05:08:55.994Z,96671.69
2018-04-30T05:11:25.012Z,96678.89
2018-04-30T05:13:53.247Z,96674.87
2018-04-30T05:16:22.691Z,96672.92
2018-04-30T05:18:50.926Z,96681.69
2018-04-30T05:21:19.212Z,96687.87
2018-04-30T05:23:47.437Z,96680.39
2018-04-30T05:26:15.702Z,96686.98
2018-04-30T05:28:44.706Z,96673.62
2018-04-30T05:31:12.954Z,96683.82
2018-04-30T05:33:41.981Z,96684.65
2018-04-30T05:36:10.236Z,96678.82
2018-04-30T05:38:39.245Z,96673.14
2018-04-30T05:41:08.255Z,96684.88
2018-04-30T05:43:37.258Z,96697.64
2018-04-30T05:46:06.275Z,96717.74
2018-04-30T05:48:35.283Z,96736.74
2018-04-30T05:51:04.383Z,96730.91
2018-04-30T05:53:33.502Z,96736.73
2018-04-30T05:56:02.519Z,96732.89
2018-04-30T05:58:30.764Z,96747.60
2018-04-30T06:00:59.022Z,96733.66
2018-04-30T06:03:27.262Z,96723.39
2018-04-30T06:05:56.289Z,96713.89
2018-04-30T06:08:24.531Z,96721.05
2018-04-30T06:10:52.775Z,96727.00
2018-04-30T06:13:21.038Z,96728.14
2018-04-30T06:15:50.065Z,96713.27
2018-04-30T06:18:18.304Z,96697.75
2018-04-30T06:20:46.549Z,96685.23
2018-04-30T06:23:14.787Z,96675.58
2018-04-30T06:25:43.048Z,96691.05
2018-04-30T06:28:12.054Z,96696.36
2018-04-30T06:30:40.315Z,96699.70
2018-04-30T06:33:08.609Z,96694.53
2018-04-30T06:35:36.862Z,96699.39
2018-04-30T06:38:05.969Z,96705.61
2018-04-30T06:40:34.206Z,96706.73
2018-04-30T06:43:02.475Z,96705.34
2018-04-30T06:45:30.712Z,96717.30
2018-04-30T06:47:58.984Z,96714.78
2018-04-30T06:50:27.211Z,96704.44
2018-04-30T06:52:55.530Z,96703.23
2018-04-30T06:55:24.539Z,96700.63
2018-04-30T06:57:52.802Z,96708.83
2018-04-30T07:00:22.599Z,96696.05
2018-04-30T07:02:50.848Z,96697.83
2018-04-30T07:05:19.083Z,96686.08
2018-04-30T07:07:48.474Z,96688.05
2018-04-30T07:10:16.723Z,96691.72
2018-04-30T07:12:45.735Z,96677.86
2018-04-30T07:15:14.003Z,96679.11
2018-04-30T07:17:43.031Z,96690.18
2018-04-30T07:20:11.373Z,96688.50
2018-04-30T07:22:40.516Z,96693.67
2018-04-30T07:25:09.942Z,96686.16
2018-04-30T07:27:39.105Z,96689.00
2018-04-30T07:30:07.291Z,96687.39
2018-04-30T07:32:35.560Z,96696.09
2018-04-30T07:35:04.628Z,96692.13
2018-04-30T07:37:33.661Z,96695.14
2018-04-30T07:40:01.926Z,96697.39
2018-04-30T07:42:30.941Z,96697.50
2018-04-30T07:44:59.948Z,96704.53
2018-04-30T07:47:29.343Z,96706.92
2018-04-30T07:49:58.358Z,96703.97
2018-04-30T07:52:27.395Z,96696.55
2018-04-30T07:54:55.627Z,96696.34
2018-04-30T07:57:23.918Z,96699.53
2018-04-30T07:59:52.212Z,96695.22
2018-04-30T08:02:20.467Z,96703.92
2018-04-30T08:04:48.708Z,96706.02
2018-04-30T08:07:18.087Z,96717.65
2018-04-30T08:09:46.340Z,96722.77
2018-04-30T08:12:14.594Z,96720.16
2018-04-30T08:14:44.534Z,96725.42
2018-04-30T08:17:13.558Z,96711.05
2018-04-30T08:19:41.808Z,96719.16
2018-04-30T08:22:10.839Z,96722.33
2018-04-30T08:24:39.838Z,96729.56
2018-04-30T08:27:08.855Z,96719.67
2018-04-30T08:29:37.104Z,96713.58
2018-04-30T08:32:05.379Z,96711.88
2018-04-30T08:34:34.394Z,96710.33
2018-04-30T08:37:02.643Z,96706.45
2018-04-30T08:39:30.883Z,96706.61
2018-04-30T08:41:59.110Z,96702.41
2018-04-30T08:44:27.370Z,96709.19
2018-04-30T08:46:57.126Z,96710.48
2018-04-30T08:49:25.382Z,96708.49
2018-04-30T08:51:54.394Z,96716.59
2018-04-30T08:54:23.406Z,96718.52
2018-04-30T08:56:52.411Z,96718.43
2018-04-30T08:59:21.432Z,96715.73
2018-04-30T09:01:49.670Z,96704.92
2018-04-30T09:04:17.918Z,96695.09
2018-04-30T09:06:46.150Z,96707.64
2018-04-30T09:09:14.413Z,96704.62
2018-04-30T09:11:42.651Z,96704.95
2018-04-30T09:14:11.786Z,96707.60
2018-04-30T09:16:40.021Z,96711.03
2018-04-30T09:21:41.478Z,96710.29
2018-04-30T09:24:09.735Z,96711.54
2018-04-30T09:26:38.739Z,96721.91
2018-04-30T09:29:07.795Z,96719.57
2018-04-30T09:31:36.007Z,96711.05
2018-04-30T09:34:04.328Z,96715.31
2018-04-30T09:36:33.328Z,96711.61
2018-04-30T09:39:02.379Z,96708.77
2018-04-30T09:41:30.635Z,96713.34
2018-04-30T09:43:59.653Z,96709.39
2018-04-30T09:46:27.907Z,96708.43
2018-04-30T09:48:56.187Z,96712.38
2018-04-30T09:51:24.415Z,96715.95
2018-04-30T09:53:52.667Z,96723.53
2018-04-30T09:56:20.898Z,96708.70
2018-04-30T09:58:49.142Z,96698.70
2018-04-30T10:01:17.380Z,96706.42
2018-04-30T10:03:45.651Z,96704.77
2018-04-30T10:06:13.902Z,96704.09
2018-04-30T10:08:42.188Z,96721.41
2018-04-30T10:11:10.444Z,96706.86
2018-04-30T10:13:38.691Z,96705.95
2018-04-30T10:16:06.941Z,96706.78
2018-04-30T10:18:35.186Z,96714.71
2018-04-30T10:21:04.186Z,96713.52
2018-04-30T10:23:33.300Z,96712.03
2018-04-30T10:26:01.439Z,96726.95
2018-04-30T10:28:29.760Z,96719.00
2018-04-30T10:30:57.933Z,96707.99
2018-04-30T10:33:26.206Z,96716.71
2018-04-30T10:35:54.439Z,96717.18
2018-04-30T10:38:23.459Z,96719.50
2018-04-30T10:40:51.696Z,96710.03
2018-04-30T10:43:19.955Z,96702.63
2018-04-30T10:45:48.298Z,96706.45
2018-04-30T10:48:17.203Z,96699.84
2018-04-30T10:50:46.224Z,96708.38
2018-04-30T10:53:15.227Z,96704.69
2018-04-30T10:55:44.238Z,96701.92
2018-04-30T10:58:13.258Z,96694.77
2018-04-30T11:00:41.519Z,96702.57
2018-04-30T11:03:10.552Z,96721.02
2018-04-30T11:05:38.802Z,96707.45
2018-04-30T11:08:07.039Z,96711.24
2018-04-30T11:10:35.304Z,96681.81
2018-04-30T11:13:04.311Z,96705.39
2018-04-30T11:15:32.573Z,96695.08
2018-04-30T11:18:00.808Z,96699.52
2018-04-30T11:20:29.061Z,96707.75
2018-04-30T11:22:58.081Z,96707.45
2018-04-30T11:25:27.102Z,96700.30
2018-04-30T11:27:55.354Z,96704.19
2018-04-30T11:30:23.600Z,96705.25
2018-04-30T11:32:51.839Z,96699.84
2018-04-30T11:35:20.867Z,96709.31
2018-04-30T11:37:49.860Z,96717.30
2018-04-30T11:40:19.886Z,96709.59
2018-04-30T11:42:48.886Z,96713.48
2018-04-30T11:45:17.917Z,96719.47
2018-04-30T11:47:46.146Z,96702.56
2018-04-30T11:50:14.411Z,96707.13
2018-04-30T11:52:42.652Z,96716.05
2018-04-30T11:55:10.912Z,96710.61
2018-04-30T11:57:39.155Z,96715.56
2018-04-30T12:00:07.434Z,96720.01
2018-04-30T12:02:35.696Z,96719.88
2018-04-30T12:05:03.990Z,96726.23
2018-04-30T12:07:32.195Z,96719.09
2018-04-30T12:10:00.453Z,96716.97
2018-04-30T12:12:28.674Z,96716.84
2018-04-30T12:14:57.700Z,96723.59
2018-04-30T12:17:25.939Z,96720.61
2018-04-30T12:19:54.183Z,96718.30
2018-04-30T12:22:22.422Z,96728.31
2018-04-30T12:24:50.679Z,96721.52
2018-04-30T12:27:18.922Z,96732.72
2018-04-30T12:29:47.961Z,96727.30
2018-04-30T12:32:16.928Z,96722.55
2018-04-30T12:34:45.942Z,96715.74
2018-04-30T12:37:14.981Z,96729.00
2018-04-30T12:39:43.243Z,96732.23
2018-04-30T12:42:11.483Z,96747.59
2018-04-30T12:44:39.741Z,96723.31
2018-04-30T12:47:08.013Z,96732.27
2018-04-30T12:49:36.393Z,96738.39
2018-04-30T12:52:04.575Z,96742.02
2018-04-30T12:54:32.878Z,96738.66
2018-04-30T12:57:01.887Z,96738.98
2018-04-30T12:59:30.184Z,96737.72
2018-04-30T13:01:58.442Z,96741.74
2018-04-30T13:04:27.460Z,96748.25
2018-04-30T13:06:56.490Z,96748.47
2018-04-30T13:09:24.736Z,96746.66
2018-04-30T13:11:52.984Z,96752.67
2018-04-30T13:14:21.216Z,96742.41
2018-04-30T13:16:49.462Z,96738.75
2018-04-30T13:19:17.693Z,96748.36
2018-04-30T13:21:46.014Z,96736.34
2018-04-30T13:24:15.006Z,96737.78
2018-04-30T13:26:44.032Z,96731.22
2018-04-30T13:29:12.288Z,96740.68
2018-04-30T13:31:40.540Z,96743.00
2018-04-30T13:34:08.781Z,96737.67
2018-04-30T13:36:37.800Z,96740.36
2018-04-30T13:39:06.943Z,96738.36
2018-04-30T13:41:35.251Z,96753.67
2018-04-30T13:44:03.495Z,96741.19
2018-04-30T13:46:32.519Z,96758.77
2018-04-30T13:49:00.750Z,96765.77
2018-04-30T13:51:29.009Z,96752.54
2018-04-30T13:53:57.255Z,96752.22
2018-04-30T13:56:25.545Z,96756.31
2018-04-30T13:58:53.782Z,96739.25
2018-04-30T14:01:22.841Z,96748.05
2018-04-30T14:03:52.411Z,96736.70
2018-04-30T14:06:20.663Z,96738.86
2018-04-30T14:08:48.893Z,96738.67
2018-04-30T14:11:17.132Z,96737.31
2018-04-30T14:13:46.132Z,96740.42
2018-04-30T14:16:15.157Z,96742.33
2018-04-30T14:18:43.402Z,96751.75
2018-04-30T14:21:11.651Z,96754.58
2018-04-30T14:23:39.936Z,96758.57
2018-04-30T14:26:08.180Z,96746.56
2018-04-30T14:28:37.235Z,96773.61
2018-04-30T14:31:05.498Z,96763.27
2018-04-30T14:33:33.768Z,96764.41
2018-04-30T14:36:02.768Z,96761.95
2018-04-30T14:38:31.779Z,96763.59
2018-04-30T14:41:00.792Z,96769.48
2018-04-30T14:43:29.798Z,96766.34
2018-04-30T14:45:58.806Z,96778.53
2018-04-30T14:48:27.930Z,96773.53
2018-04-30T14:50:56.158Z,96767.41
2018-04-30T14:53:24.411Z,96761.21
2018-04-30T14:55:52.655Z,96764.36
2018-04-30T14:58:20.902Z,96759.25
2018-04-30T15:00:49.157Z,96760.31
2018-04-30T15:03:18.167Z,96758.55
2018-04-30T15:05:46.398Z,96756.44
2018-04-30T15:08:14.651Z,96754.85
2018-04-30T15:10:42.896Z,96755.41
2018-04-30T15:13:11.381Z,96746.53
2018-04-30T15:15:39.621Z,96747.13
2018-04-30T15:18:07.886Z,96751.39
2018-04-30T15:20:36.899Z,96759.16
2018-04-30T15:23:06.691Z,96756.95
2018-04-30T15:25:34.930Z,96759.22
2018-04-30T15:28:03.249Z,96761.52
2018-04-30T15:30:31.423Z,96759.79
2018-04-30T15:32:59.681Z,96752.74
2018-04-30T15:35:28.682Z,96759.52
2018-04-30T15:37:57.705Z,96758.66
2018-04-30T15:40:25.934Z,96762.58
2018-04-30T15:42:54.180Z,96768.73
2018-04-30T15:45:23.189Z,96765.81
2018-04-30T15:47:51.438Z,96758.80
2018-04-30T15:50:19.670Z,96760.63
2018-04-30T15:52:47.915Z,96755.16
2018-04-30T15:55:16.154Z,96760.09
2018-04-30T15:57:44.416Z,96755.53
2018-04-30T16:00:13.415Z,96757.91
2018-04-30T16:02:42.446Z,96755.71
2018-04-30T16:05:10.704Z,96755.87
2018-04-30T16:07:38.953Z,96754.94
2018-04-30T16:10:07.203Z,96769.11
2018-04-30T16:12:35.463Z,96767.13
2018-04-30T16:15:03.697Z,96765.61
2018-04-30T16:17:31.973Z,96756.59
2018-04-30T16:20:00.205Z,96751.48
2018-04-30T16:22:28.479Z,96766.78
2018-04-30T16:24:56.736Z,96774.07
2018-04-30T16:27:24.990Z,96784.02
2018-04-30T16:29:53.223Z,96793.34
2018-04-30T16:32:21.523Z,96782.94
2018-04-30T16:34:49.764Z,96795.30
2018-04-30T16:37:18.043Z,96784.68
2018-04-30T16:39:46.286Z,96798.55
2018-04-30T16:42:14.519Z,96799.80
2018-04-30T16:44:42.775Z,96788.73
2018-04-30T16:47:11.141Z,96783.08
2018-04-30T16:49:39.327Z,96787.63
2018-04-30T16:52:07.568Z,96795.16
2018-04-30T16:54:35.820Z,96800.45
2018-04-30T16:57:04.055Z,96798.55
2018-04-30T16:59:32.307Z,96809.28
2018-04-30T17:02:00.542Z,96810.34
2018-04-30T17:04:28.799Z,96809.02
2018-04-30T17:06:57.040Z,96816.09
2018-04-30T17:09:26.078Z,96840.47
2018-04-30T17:11:54.299Z,96820.55
2018-04-30T17:14:22.547Z,96839.56
2018-04-30T17:16:50.786Z,96836.11
2018-04-30T17:19:19.059Z,96828.80
2018-04-30T17:21:47.303Z,96828.75
2018-04-30T17:24:15.637Z,96815.83
2018-04-30T17:26:44.605Z,96811.68
2018-04-30T17:29:12.871Z,96817.78
2018-04-30T17:31:41.955Z,96811.31
2018-04-30T17:34:10.221Z,96816.64
2018-04-30T17:36:38.459Z,96831.05
2018-04-30T17:39:07.490Z,96831.51
2018-04-30T17:41:35.746Z,96831.63
2018-04-30T17:44:04.760Z,96837.77
2018-04-30T17:46:33.772Z,96848.51
2018-04-30T17:49:02.087Z,96858.29
2018-04-30T17:51:31.051Z,96870.73
2018-04-30T17:54:00.110Z,96859.86
2018-04-30T17:56:29.059Z,96868.20
2018-04-30T17:58:58.096Z,96865.13
2018-04-30T18:01:27.687Z,96874.82
2018-04-30T18:03:56.724Z,96882.36
2018-04-30T18:06:24.978Z,96896.53
2018-04-30T18:08:53.235Z,96883.42
2018-04-30T18:11:21.471Z,96879.83
2018-04-30T18:13:49.728Z,96891.83
2018-04-30T18:16:18.002Z,96892.38
2018-04-30T18:18:46.258Z,96894.27
2018-04-30T18:21:15.278Z,96898.47
2018-04-30T18:23:43.559Z,96903.38
2018-04-30T18:26:11.831Z,96913.27
2018-04-30T18:28:40.091Z,96925.88
2018-04-30T18:31:08.324Z,96925.14
2018-04-30T18:33:36.558Z,96913.79
2018-04-30T18:36:04.898Z,96917.98
2018-04-30T18:38:33.108Z,96918.14
2018-04-30T18:41:01.400Z,96930.31
2018-04-30T18:43:29.633Z,96935.32
2018-04-30T18:45:58.671Z,96943.70
2018-04-30T18:48:26.920Z,96940.75
2018-04-30T18:50:55.954Z,96935.05
2018-04-30T18:53:24.216Z,96943.47
2018-04-30T18:55:52.480Z,96950.84
2018-04-30T18:58:20.790Z,96957.72
2018-04-30T19:00:49.035Z,96960.52
2018-04-30T19:03:17.276Z,96962.39
2018-04-30T19:05:46.296Z,96961.02
2018-04-30T19:08:15.328Z,96976.31
2018-04-30T19:10:43.611Z,96981.89
2018-04-30T19:13:11.846Z,97001.69
2018-04-30T19:15:40.102Z,97002.20
2018-04-30T19:18:08.334Z,97015.00
2018-04-30T19:20:37.703Z,97013.34
2018-04-30T19:23:05.973Z,97016.04
2018-04-30T19:25:34.214Z,97015.28
2018-04-30T19:28:02.459Z,97020.78
2018-04-30T19:30:30.733Z,97021.95
2018-04-30T19:32:58.998Z,97020.88
2018-04-30T19:35:28.017Z,97030.02
2018-04-30T19:37:57.006Z,97035.67
2018-04-30T19:40:25.314Z,97033.80
2018-04-30T19:42:54.355Z,97037.45
2018-04-30T19:45:22.652Z,97026.77
2018-04-30T19:47:50.869Z,97030.73
2018-04-30T19:50:19.128Z,97032.46
2018-04-30T19:52:47.367Z,97030.23
2018-04-30T19:55:16.500Z,97033.80
2018-04-30T19:57:45.543Z,97037.11
2018-04-30T20:00:14.602Z,97035.41
2018-04-30T20:02:43.606Z,97039.25
2018-04-30T20:05:12.741Z,97042.19
2018-04-30T20:07:40.986Z,97046.25
2018-04-30T20:10:09.240Z,97048.65
2018-04-30T20:12:37.475Z,97039.09
2018-04-30T20:15:06.535Z,97053.16
2018-04-30T20:17:34.792Z,97042.88
2018-04-30T20:20:03.822Z,97044.91
2018-04-30T20:22:32.059Z,97048.85
2018-04-30T20:25:01.063Z,97040.94
2018-04-30T20:27:29.319Z,97043.36
2018-04-30T20:29:57.644Z,97049.53
2018-04-30T20:32:26.669Z,97046.42
2018-04-30T20:34:55.674Z,97049.19
2018-04-30T20:37:24.714Z,97051.94
2018-04-30T20:39:52.942Z,97045.34
2018-04-30T20:42:21.185Z,97053.50
2018-04-30T20:44:49.414Z,97046.30
2018-04-30T20:47:17.656Z,97052.45
2018-04-30T20:49:45.896Z,97057.40
2018-04-30T20:52:14.141Z,97055.59
2018-04-30T20:54:42.382Z,97061.78
2018-04-30T20:57:10.682Z,97074.95
2018-04-30T20:59:39.703Z,97078.45
2018-04-30T21:02:07.979Z,97080.16
2018-04-30T21:04:37.003Z,97073.67
2018-04-30T21:07:05.255Z,97079.05
2018-04-30T21:09:33.502Z,97084.29
2018-04-30T21:12:01.747Z,97076.95
2018-04-30T21:14:30.775Z,97067.92
2018-04-30T21:16:59.026Z,97071.79
2018-04-30T21:19:27.270Z,97084.98
2018-04-30T21:21:55.533Z,97085.81
2018-04-30T21:24:23.854Z,97088.67
2018-04-30T21:26:52.803Z,97088.56
2018-04-30T21:29:21.035Z,97076.06
2018-04-30T21:31:49.291Z,97075.98
2018-04-30T21:34:18.296Z,97066.02
2018-04-30T21:36:47.314Z,97086.64
2018-04-30T21:39:16.312Z,97084.41
2018-04-30T21:41:45.365Z,97085.55
2018-04-30T21:44:13.642Z,97078.80
2018-04-30T21:46:41.906Z,97070.08
2018-04-30T21:49:10.187Z,97058.87
2018-04-30T21:51:38.454Z,97074.61
2018-04-30T21:54:06.688Z,97070.80
2018-04-30T21:56:34.943Z,97081.20
2018-04-30T21:59:03.191Z,97072.11
2018-04-30T22:01:31.447Z,97062.70
2018-04-30T22:04:00.463Z,97058.67
2018-04-30T22:06:28.723Z,97068.63
2018-04-30T22:08:57.738Z,97073.13
2018-04-30T22:11:26.756Z,97092.77
2018-04-30T22:13:54.994Z,97094.80
2018-04-30T22:16:23.251Z,97101.55
2018-04-30T22:18:51.487Z,97099.42
2018-04-30T22:21:19.748Z,97096.37
2018-04-30T22:23:48.003Z,97086.62
2018-04-30T22:26:16.243Z,97103.56
2018-04-30T22:28:44.490Z,97105.83
2018-04-30T22:31:12.743Z,97114.27
2018-04-30T22:33:41.879Z,97094.08
2018-04-30T22:36:10.125Z,97082.52
2018-04-30T22:38:38.370Z,97097.95
2018-04-30T22:41:06.612Z,97119.02
2018-04-30T22:43:35.634Z,97115.17
2018-04-30T22:46:03.867Z,97116.64
2018-04-30T22:48:32.114Z,97118.53
2018-04-30T22:51:00.346Z,97120.04
2018-04-30T22:53:28.599Z,97119.28
2018-04-30T22:55:56.874Z,97119.95
2018-04-30T22:58:25.886Z,97124.20
2018-04-30T23:00:54.123Z,97124.68
2018-04-30T23:03:22.370Z,97124.42
2018-04-30T23:05:50.613Z,97122.02
2018-04-30T23:08:18.862Z,97117.25
2018-04-30T23:10:47.108Z,97118.84
2018-04-30T23:13:16.143Z,97115.67
2018-04-30T23:15:44.376Z,97116.55
2018-04-30T23:18:12.625Z,97113.91
2018-04-30T23:20:40.875Z,97112.84
2018-04-30T23:23:09.129Z,97113.29
2018-04-30T23:25:37.354Z,97116.23
2018-04-30T23:28:05.597Z,97137.61
2018-04-30T23:30:33.826Z,97146.00
2018-04-30T23:33:02.075Z,97138.53
2018-04-30T23:35:30.310Z,97133.33
2018-04-30T23:37:59.332Z,97142.42
2018-04-30T23:40:28.381Z,97137.88
2018-04-30T23:42:56.626Z,97137.25
2018-04-30T23:45:25.640Z,97130.72
2018-04-30T23:47:53.882Z,97133.25
2018-04-30T23:50:22.122Z,97130.06
2018-04-30T23:52:50.378Z,97128.30
2018-04-30T23:55:18.611Z,97143.50
2018-04-30T23:57:46.872Z,97128.97
